sensor_id;sensor_type;location;lat;lon;timestamp;P1;durP1;ratioP1;P2;durP2;ratioP2
25107;SDS011;13090;53.422;7.670;2024-01-25T00:02:21;31.00;;;5.38;;
25107;SDS011;13090;53.422;7.670;2024-01-25T00:08:04;34.40;;;5.65;;
25107;SDS011;13090;53.422;7.670;2024-01-25T00:13:44;42.90;;;6.18;;
25107;SDS011;13090;53.422;7.670;2024-01-25T00:19:24;43.25;;;5.20;;
25107;SDS011;13090;53.422;7.670;2024-01-25T00:25:06;32.38;;;5.18;;
25107;SDS011;13090;53.422;7.670;2024-01-25T00:30:47;33.60;;;4.97;;
25107;SDS011;13090;53.422;7.670;2024-01-25T00:36:28;33.75;;;5.75;;
25107;SDS011;13090;53.422;7.670;2024-01-25T00:42:12;29.25;;;5.60;;
25107;SDS011;13090;53.422;7.670;2024-01-25T00:47:53;37.15;;;4.60;;
25107;SDS011;13090;53.422;7.670;2024-01-25T00:53:33;44.17;;;5.97;;
25107;SDS011;13090;53.422;7.670;2024-01-25T00:59:16;32.67;;;5.38;;
25107;SDS011;13090;53.422;7.670;2024-01-25T01:04:57;25.45;;;5.22;;
25107;SDS011;13090;53.422;7.670;2024-01-25T01:10:37;33.75;;;5.10;;
25107;SDS011;13090;53.422;7.670;2024-01-25T01:16:19;42.03;;;5.05;;
25107;SDS011;13090;53.422;7.670;2024-01-25T01:22:00;31.33;;;4.38;;
25107;SDS011;13090;53.422;7.670;2024-01-25T01:27:40;26.95;;;4.10;;
25107;SDS011;13090;53.422;7.670;2024-01-25T01:33:22;36.85;;;4.65;;
25107;SDS011;13090;53.422;7.670;2024-01-25T01:39:03;42.10;;;4.90;;
25107;SDS011;13090;53.422;7.670;2024-01-25T01:44:43;30.05;;;4.80;;
25107;SDS011;13090;53.422;7.670;2024-01-25T01:50:25;39.90;;;5.10;;
25107;SDS011;13090;53.422;7.670;2024-01-25T01:56:07;30.80;;;4.55;;
25107;SDS011;13090;53.422;7.670;2024-01-25T02:01:49;39.40;;;5.10;;
25107;SDS011;13090;53.422;7.670;2024-01-25T02:07:31;44.97;;;4.97;;
25107;SDS011;13090;53.422;7.670;2024-01-25T02:13:11;23.60;;;4.55;;
25107;SDS011;13090;53.422;7.670;2024-01-25T02:18:51;32.30;;;4.70;;
25107;SDS011;13090;53.422;7.670;2024-01-25T02:24:33;30.23;;;4.63;;
25107;SDS011;13090;53.422;7.670;2024-01-25T02:30:13;28.45;;;4.65;;
25107;SDS011;13090;53.422;7.670;2024-01-25T02:35:54;30.85;;;5.07;;
25107;SDS011;13090;53.422;7.670;2024-01-25T02:41:36;35.65;;;4.82;;
25107;SDS011;13090;53.422;7.670;2024-01-25T02:47:16;26.25;;;4.47;;
25107;SDS011;13090;53.422;7.670;2024-01-25T02:52:56;33.80;;;4.45;;
25107;SDS011;13090;53.422;7.670;2024-01-25T02:58:38;26.33;;;4.63;;
25107;SDS011;13090;53.422;7.670;2024-01-25T03:04:19;27.55;;;4.88;;
25107;SDS011;13090;53.422;7.670;2024-01-25T03:10:00;29.77;;;5.28;;
25107;SDS011;13090;53.422;7.670;2024-01-25T03:15:42;34.75;;;4.78;;
25107;SDS011;13090;53.422;7.670;2024-01-25T03:21:22;32.70;;;4.80;;
25107;SDS011;13090;53.422;7.670;2024-01-25T03:27:03;32.08;;;4.32;;
25107;SDS011;13090;53.422;7.670;2024-01-25T03:32:45;38.95;;;5.75;;
25107;SDS011;13090;53.422;7.670;2024-01-25T03:38:26;32.25;;;4.65;;
25107;SDS011;13090;53.422;7.670;2024-01-25T03:44:06;35.05;;;4.63;;
25107;SDS011;13090;53.422;7.670;2024-01-25T03:49:48;40.10;;;4.78;;
25107;SDS011;13090;53.422;7.670;2024-01-25T03:55:29;27.40;;;4.18;;
25107;SDS011;13090;53.422;7.670;2024-01-25T04:01:09;43.75;;;5.93;;
25107;SDS011;13090;53.422;7.670;2024-01-25T04:06:51;30.45;;;4.80;;
25107;SDS011;13090;53.422;7.670;2024-01-25T04:12:32;24.50;;;4.38;;
25107;SDS011;13090;53.422;7.670;2024-01-25T04:18:12;32.35;;;5.18;;
25107;SDS011;13090;53.422;7.670;2024-01-25T04:23:54;37.33;;;5.20;;
25107;SDS011;13090;53.422;7.670;2024-01-25T04:29:37;33.55;;;4.85;;
25107;SDS011;13090;53.422;7.670;2024-01-25T04:35:18;31.58;;;5.78;;
25107;SDS011;13090;53.422;7.670;2024-01-25T04:41:00;36.53;;;5.15;;
25107;SDS011;13090;53.422;7.670;2024-01-25T04:46:41;34.85;;;4.35;;
25107;SDS011;13090;53.422;7.670;2024-01-25T04:52:21;42.83;;;5.25;;
25107;SDS011;13090;53.422;7.670;2024-01-25T04:58:03;28.73;;;4.63;;
25107;SDS011;13090;53.422;7.670;2024-01-25T05:03:44;39.25;;;5.57;;
25107;SDS011;13090;53.422;7.670;2024-01-25T05:09:24;36.90;;;5.20;;
25107;SDS011;13090;53.422;7.670;2024-01-25T05:15:07;35.08;;;5.22;;
25107;SDS011;13090;53.422;7.670;2024-01-25T05:20:47;36.03;;;6.45;;
25107;SDS011;13090;53.422;7.670;2024-01-25T05:26:27;32.72;;;5.50;;
25107;SDS011;13090;53.422;7.670;2024-01-25T05:32:09;33.40;;;4.38;;
25107;SDS011;13090;53.422;7.670;2024-01-25T05:37:49;41.50;;;4.88;;
25107;SDS011;13090;53.422;7.670;2024-01-25T05:43:30;32.72;;;4.53;;
25107;SDS011;13090;53.422;7.670;2024-01-25T05:49:11;35.80;;;5.65;;
25107;SDS011;13090;53.422;7.670;2024-01-25T05:54:52;38.67;;;5.90;;
25107;SDS011;13090;53.422;7.670;2024-01-25T06:00:33;32.97;;;5.20;;
25107;SDS011;13090;53.422;7.670;2024-01-25T06:06:15;36.65;;;5.25;;
25107;SDS011;13090;53.422;7.670;2024-01-25T06:11:55;40.80;;;5.03;;
25107;SDS011;13090;53.422;7.670;2024-01-25T06:17:36;34.75;;;5.55;;
25107;SDS011;13090;53.422;7.670;2024-01-25T06:23:18;30.58;;;4.75;;
25107;SDS011;13090;53.422;7.670;2024-01-25T06:28:58;26.63;;;4.63;;
25107;SDS011;13090;53.422;7.670;2024-01-25T06:34:39;31.20;;;4.55;;
25107;SDS011;13090;53.422;7.670;2024-01-25T06:40:21;32.30;;;4.75;;
25107;SDS011;13090;53.422;7.670;2024-01-25T06:46:01;33.95;;;4.80;;
25107;SDS011;13090;53.422;7.670;2024-01-25T06:51:42;29.42;;;5.03;;
25107;SDS011;13090;53.422;7.670;2024-01-25T06:57:25;35.30;;;5.53;;
25107;SDS011;13090;53.422;7.670;2024-01-25T07:03:05;36.05;;;5.50;;
25107;SDS011;13090;53.422;7.670;2024-01-25T07:08:46;39.72;;;5.25;;
25107;SDS011;13090;53.422;7.670;2024-01-25T07:14:28;38.05;;;5.22;;
25107;SDS011;13090;53.422;7.670;2024-01-25T07:20:08;36.65;;;5.05;;
25107;SDS011;13090;53.422;7.670;2024-01-25T07:25:51;34.25;;;5.35;;
25107;SDS011;13090;53.422;7.670;2024-01-25T07:31:32;28.17;;;5.13;;
25107;SDS011;13090;53.422;7.670;2024-01-25T07:37:13;39.88;;;5.28;;
25107;SDS011;13090;53.422;7.670;2024-01-25T07:42:53;28.05;;;5.30;;
25107;SDS011;13090;53.422;7.670;2024-01-25T07:48:35;25.63;;;4.40;;
25107;SDS011;13090;53.422;7.670;2024-01-25T07:54:15;33.40;;;4.65;;
25107;SDS011;13090;53.422;7.670;2024-01-25T07:59:57;32.97;;;4.88;;
25107;SDS011;13090;53.422;7.670;2024-01-25T08:05:39;23.63;;;4.93;;
25107;SDS011;13090;53.422;7.670;2024-01-25T08:11:29;34.75;;;4.47;;
25107;SDS011;13090;53.422;7.670;2024-01-25T08:17:09;27.25;;;4.35;;
25107;SDS011;13090;53.422;7.670;2024-01-25T08:22:51;32.85;;;4.80;;
25107;SDS011;13090;53.422;7.670;2024-01-25T08:28:31;30.27;;;4.78;;
25107;SDS011;13090;53.422;7.670;2024-01-25T08:34:12;28.80;;;5.13;;
25107;SDS011;13090;53.422;7.670;2024-01-25T08:39:54;31.10;;;4.82;;
25107;SDS011;13090;53.422;7.670;2024-01-25T08:45:35;33.20;;;4.60;;
25107;SDS011;13090;53.422;7.670;2024-01-25T08:51:15;25.00;;;4.40;;
25107;SDS011;13090;53.422;7.670;2024-01-25T08:56:57;21.77;;;4.38;;
25107;SDS011;13090;53.422;7.670;2024-01-25T09:02:38;20.10;;;3.75;;
25107;SDS011;13090;53.422;7.670;2024-01-25T09:08:18;23.05;;;4.47;;
25107;SDS011;13090;53.422;7.670;2024-01-25T09:14:00;17.90;;;3.70;;
25107;SDS011;13090;53.422;7.670;2024-01-25T09:19:41;23.42;;;4.13;;
25107;SDS011;13090;53.422;7.670;2024-01-25T09:25:22;24.00;;;3.97;;
25107;SDS011;13090;53.422;7.670;2024-01-25T09:31:04;26.88;;;4.32;;
25107;SDS011;13090;53.422;7.670;2024-01-25T09:36:46;32.05;;;8.45;;
25107;SDS011;13090;53.422;7.670;2024-01-25T09:42:27;23.58;;;4.32;;
25107;SDS011;13090;53.422;7.670;2024-01-25T09:48:09;26.58;;;4.90;;
25107;SDS011;13090;53.422;7.670;2024-01-25T09:53:52;24.48;;;4.43;;
25107;SDS011;13090;53.422;7.670;2024-01-25T09:59:34;24.95;;;5.03;;
25107;SDS011;13090;53.422;7.670;2024-01-25T10:05:16;36.03;;;4.88;;
25107;SDS011;13090;53.422;7.670;2024-01-25T10:10:58;17.25;;;3.50;;
25107;SDS011;13090;53.422;7.670;2024-01-25T10:16:38;27.85;;;5.10;;
25107;SDS011;13090;53.422;7.670;2024-01-25T10:22:20;29.33;;;4.03;;
25107;SDS011;13090;53.422;7.670;2024-01-25T10:28:01;25.15;;;4.90;;
25107;SDS011;13090;53.422;7.670;2024-01-25T10:33:42;30.25;;;4.70;;
25107;SDS011;13090;53.422;7.670;2024-01-25T10:39:27;35.17;;;5.20;;
25107;SDS011;13090;53.422;7.670;2024-01-25T10:45:08;32.63;;;5.35;;
25107;SDS011;13090;53.422;7.670;2024-01-25T10:50:49;33.28;;;7.07;;
25107;SDS011;13090;53.422;7.670;2024-01-25T10:56:31;21.48;;;4.47;;
25107;SDS011;13090;53.422;7.670;2024-01-25T11:02:12;31.90;;;6.05;;
25107;SDS011;13090;53.422;7.670;2024-01-25T11:07:52;40.17;;;5.63;;
25107;SDS011;13090;53.422;7.670;2024-01-25T11:13:34;21.73;;;4.57;;
25107;SDS011;13090;53.422;7.670;2024-01-25T11:19:18;28.98;;;5.60;;
25107;SDS011;13090;53.422;7.670;2024-01-25T11:25:10;31.65;;;5.25;;
25107;SDS011;13090;53.422;7.670;2024-01-25T11:30:54;26.77;;;5.20;;
25107;SDS011;13090;53.422;7.670;2024-01-25T11:36:35;22.63;;;5.18;;
25107;SDS011;13090;53.422;7.670;2024-01-25T11:42:15;24.48;;;5.55;;
25107;SDS011;13090;53.422;7.670;2024-01-25T11:47:57;25.08;;;5.03;;
25107;SDS011;13090;53.422;7.670;2024-01-25T11:53:38;24.50;;;4.70;;
25107;SDS011;13090;53.422;7.670;2024-01-25T11:59:18;25.60;;;4.32;;
25107;SDS011;13090;53.422;7.670;2024-01-25T12:05:00;19.05;;;3.95;;
25107;SDS011;13090;53.422;7.670;2024-01-25T12:10:43;21.48;;;4.22;;
25107;SDS011;13090;53.422;7.670;2024-01-25T12:16:24;22.70;;;4.25;;
25107;SDS011;13090;53.422;7.670;2024-01-25T12:22:06;24.38;;;4.20;;
25107;SDS011;13090;53.422;7.670;2024-01-25T12:27:47;17.77;;;3.75;;
25107;SDS011;13090;53.422;7.670;2024-01-25T12:33:27;16.60;;;4.10;;
25107;SDS011;13090;53.422;7.670;2024-01-25T12:39:09;19.70;;;3.92;;
25107;SDS011;13090;53.422;7.670;2024-01-25T12:44:52;19.25;;;4.60;;
25107;SDS011;13090;53.422;7.670;2024-01-25T12:50:33;25.95;;;4.93;;
25107;SDS011;13090;53.422;7.670;2024-01-25T12:56:15;15.82;;;3.90;;
25107;SDS011;13090;53.422;7.670;2024-01-25T13:01:56;19.30;;;4.38;;
25107;SDS011;13090;53.422;7.670;2024-01-25T13:07:37;23.63;;;4.90;;
25107;SDS011;13090;53.422;7.670;2024-01-25T13:13:19;18.98;;;4.28;;
25107;SDS011;13090;53.422;7.670;2024-01-25T13:18:59;18.88;;;4.22;;
25107;SDS011;13090;53.422;7.670;2024-01-25T13:24:40;20.45;;;4.38;;
25107;SDS011;13090;53.422;7.670;2024-01-25T13:30:21;26.52;;;5.93;;
25107;SDS011;13090;53.422;7.670;2024-01-25T13:36:02;23.08;;;5.70;;
25107;SDS011;13090;53.422;7.670;2024-01-25T13:41:42;26.60;;;5.15;;
25107;SDS011;13090;53.422;7.670;2024-01-25T13:47:24;26.77;;;5.28;;
25107;SDS011;13090;53.422;7.670;2024-01-25T13:53:04;23.52;;;4.78;;
25107;SDS011;13090;53.422;7.670;2024-01-25T13:58:45;31.63;;;5.65;;
25107;SDS011;13090;53.422;7.670;2024-01-25T14:04:27;24.50;;;4.68;;
25107;SDS011;13090;53.422;7.670;2024-01-25T14:10:08;29.23;;;5.35;;
25107;SDS011;13090;53.422;7.670;2024-01-25T14:15:50;21.95;;;4.40;;
25107;SDS011;13090;53.422;7.670;2024-01-25T14:21:32;17.92;;;4.32;;
25107;SDS011;13090;53.422;7.670;2024-01-25T14:27:12;28.00;;;4.43;;
25107;SDS011;13090;53.422;7.670;2024-01-25T14:32:54;27.48;;;4.60;;
25107;SDS011;13090;53.422;7.670;2024-01-25T14:38:37;17.27;;;4.07;;
25107;SDS011;13090;53.422;7.670;2024-01-25T14:44:17;16.85;;;3.88;;
25107;SDS011;13090;53.422;7.670;2024-01-25T14:49:58;23.33;;;4.50;;
25107;SDS011;13090;53.422;7.670;2024-01-25T14:55:39;22.40;;;4.82;;
25107;SDS011;13090;53.422;7.670;2024-01-25T15:01:20;32.13;;;7.53;;
25107;SDS011;13090;53.422;7.670;2024-01-25T15:07:01;22.63;;;6.03;;
25107;SDS011;13090;53.422;7.670;2024-01-25T15:12:44;24.10;;;5.53;;
25107;SDS011;13090;53.422;7.670;2024-01-25T15:18:24;23.80;;;5.18;;
25107;SDS011;13090;53.422;7.670;2024-01-25T15:24:04;22.40;;;5.38;;
25107;SDS011;13090;53.422;7.670;2024-01-25T15:29:46;25.42;;;4.80;;
25107;SDS011;13090;53.422;7.670;2024-01-25T15:35:27;22.17;;;5.15;;
25107;SDS011;13090;53.422;7.670;2024-01-25T15:41:08;22.83;;;5.03;;
25107;SDS011;13090;53.422;7.670;2024-01-25T15:46:51;26.17;;;5.30;;
25107;SDS011;13090;53.422;7.670;2024-01-25T15:52:31;26.52;;;4.80;;
25107;SDS011;13090;53.422;7.670;2024-01-25T15:58:12;26.17;;;7.70;;
25107;SDS011;13090;53.422;7.670;2024-01-25T16:03:54;22.42;;;6.15;;
25107;SDS011;13090;53.422;7.670;2024-01-25T16:09:34;22.83;;;6.45;;
25107;SDS011;13090;53.422;7.670;2024-01-25T16:15:15;29.42;;;6.85;;
25107;SDS011;13090;53.422;7.670;2024-01-25T16:20:57;25.65;;;6.10;;
25107;SDS011;13090;53.422;7.670;2024-01-25T16:26:37;29.42;;;6.97;;
25107;SDS011;13090;53.422;7.670;2024-01-25T16:32:18;44.97;;;17.35;;
25107;SDS011;13090;53.422;7.670;2024-01-25T16:37:59;32.10;;;11.23;;
25107;SDS011;13090;53.422;7.670;2024-01-25T16:43:40;32.10;;;8.43;;
25107;SDS011;13090;53.422;7.670;2024-01-25T16:49:20;46.80;;;16.80;;
25107;SDS011;13090;53.422;7.670;2024-01-25T16:55:02;35.60;;;10.15;;
25107;SDS011;13090;53.422;7.670;2024-01-25T17:00:43;26.48;;;7.00;;
25107;SDS011;13090;53.422;7.670;2024-01-25T17:06:24;23.23;;;5.60;;
25107;SDS011;13090;53.422;7.670;2024-01-25T17:12:06;37.55;;;8.40;;
25107;SDS011;13090;53.422;7.670;2024-01-25T17:17:47;26.38;;;7.45;;
25107;SDS011;13090;53.422;7.670;2024-01-25T17:23:29;30.95;;;8.85;;
25107;SDS011;13090;53.422;7.670;2024-01-25T17:29:11;26.83;;;4.78;;
25107;SDS011;13090;53.422;7.670;2024-01-25T17:34:51;24.80;;;5.07;;
25107;SDS011;13090;53.422;7.670;2024-01-25T17:40:31;25.52;;;6.13;;
25107;SDS011;13090;53.422;7.670;2024-01-25T17:46:13;24.67;;;4.93;;
25107;SDS011;13090;53.422;7.670;2024-01-25T17:51:54;32.92;;;6.03;;
25107;SDS011;13090;53.422;7.670;2024-01-25T17:57:34;31.38;;;5.82;;
25107;SDS011;13090;53.422;7.670;2024-01-25T18:03:16;27.88;;;6.65;;
25107;SDS011;13090;53.422;7.670;2024-01-25T18:08:57;28.42;;;5.38;;
25107;SDS011;13090;53.422;7.670;2024-01-25T18:14:37;27.42;;;5.28;;
25107;SDS011;13090;53.422;7.670;2024-01-25T18:20:19;27.52;;;4.38;;
25107;SDS011;13090;53.422;7.670;2024-01-25T18:26:00;20.75;;;4.38;;
25107;SDS011;13090;53.422;7.670;2024-01-25T18:31:40;20.75;;;4.43;;
25107;SDS011;13090;53.422;7.670;2024-01-25T18:37:22;31.88;;;5.60;;
25107;SDS011;13090;53.422;7.670;2024-01-25T18:43:02;22.08;;;5.00;;
25107;SDS011;13090;53.422;7.670;2024-01-25T18:48:43;29.15;;;5.55;;
25107;SDS011;13090;53.422;7.670;2024-01-25T18:54:26;29.90;;;4.97;;
25107;SDS011;13090;53.422;7.670;2024-01-25T19:00:07;25.25;;;5.00;;
25107;SDS011;13090;53.422;7.670;2024-01-25T19:05:49;23.73;;;5.38;;
25107;SDS011;13090;53.422;7.670;2024-01-25T19:11:32;29.85;;;4.75;;
25107;SDS011;13090;53.422;7.670;2024-01-25T19:17:12;26.65;;;5.25;;
25107;SDS011;13090;53.422;7.670;2024-01-25T19:22:52;26.02;;;5.35;;
25107;SDS011;13090;53.422;7.670;2024-01-25T19:28:35;23.70;;;4.28;;
25107;SDS011;13090;53.422;7.670;2024-01-25T19:34:15;23.15;;;5.45;;
25107;SDS011;13090;53.422;7.670;2024-01-25T19:39:56;22.35;;;4.82;;
25107;SDS011;13090;53.422;7.670;2024-01-25T19:45:38;29.85;;;5.32;;
25107;SDS011;13090;53.422;7.670;2024-01-25T19:51:18;26.95;;;4.80;;
25107;SDS011;13090;53.422;7.670;2024-01-25T19:56:59;24.95;;;5.40;;
25107;SDS011;13090;53.422;7.670;2024-01-25T20:02:41;26.20;;;5.65;;
25107;SDS011;13090;53.422;7.670;2024-01-25T20:08:21;32.00;;;6.13;;
25107;SDS011;13090;53.422;7.670;2024-01-25T20:14:02;31.17;;;6.93;;
25107;SDS011;13090;53.422;7.670;2024-01-25T20:19:44;20.52;;;5.30;;
25107;SDS011;13090;53.422;7.670;2024-01-25T20:25:25;18.27;;;5.18;;
25107;SDS011;13090;53.422;7.670;2024-01-25T20:31:05;26.20;;;6.63;;
25107;SDS011;13090;53.422;7.670;2024-01-25T20:36:47;33.67;;;7.03;;
25107;SDS011;13090;53.422;7.670;2024-01-25T20:42:27;23.40;;;6.28;;
25107;SDS011;13090;53.422;7.670;2024-01-25T20:48:08;25.13;;;7.30;;
25107;SDS011;13090;53.422;7.670;2024-01-25T20:53:50;20.65;;;6.85;;
25107;SDS011;13090;53.422;7.670;2024-01-25T20:59:42;32.97;;;7.93;;
25107;SDS011;13090;53.422;7.670;2024-01-25T21:05:23;32.38;;;7.93;;
25107;SDS011;13090;53.422;7.670;2024-01-25T21:11:05;30.45;;;9.40;;
25107;SDS011;13090;53.422;7.670;2024-01-25T21:16:50;31.58;;;10.23;;
25107;SDS011;13090;53.422;7.670;2024-01-25T21:22:31;34.17;;;10.85;;
25107;SDS011;13090;53.422;7.670;2024-01-25T21:28:12;33.65;;;11.05;;
25107;SDS011;13090;53.422;7.670;2024-01-25T21:33:53;38.75;;;12.90;;
25107;SDS011;13090;53.422;7.670;2024-01-25T21:39:33;32.47;;;10.80;;
25107;SDS011;13090;53.422;7.670;2024-01-25T21:45:15;34.88;;;11.82;;
25107;SDS011;13090;53.422;7.670;2024-01-25T21:50:56;33.70;;;12.25;;
25107;SDS011;13090;53.422;7.670;2024-01-25T21:56:37;36.92;;;12.55;;
25107;SDS011;13090;53.422;7.670;2024-01-25T22:02:19;31.60;;;10.77;;
25107;SDS011;13090;53.422;7.670;2024-01-25T22:07:59;28.88;;;11.63;;
25107;SDS011;13090;53.422;7.670;2024-01-25T22:13:40;36.20;;;13.23;;
25107;SDS011;13090;53.422;7.670;2024-01-25T22:19:22;28.17;;;13.45;;
25107;SDS011;13090;53.422;7.670;2024-01-25T22:25:03;44.03;;;13.32;;
25107;SDS011;13090;53.422;7.670;2024-01-25T22:30:44;38.35;;;13.95;;
25107;SDS011;13090;53.422;7.670;2024-01-25T22:36:27;38.28;;;14.45;;
25107;SDS011;13090;53.422;7.670;2024-01-25T22:42:07;43.72;;;15.23;;
25107;SDS011;13090;53.422;7.670;2024-01-25T22:47:47;40.53;;;14.32;;
25107;SDS011;13090;53.422;7.670;2024-01-25T22:53:29;45.63;;;17.63;;
25107;SDS011;13090;53.422;7.670;2024-01-25T22:59:10;39.25;;;15.85;;
25107;SDS011;13090;53.422;7.670;2024-01-25T23:04:51;38.28;;;15.25;;
25107;SDS011;13090;53.422;7.670;2024-01-25T23:10:33;40.42;;;14.55;;
25107;SDS011;13090;53.422;7.670;2024-01-25T23:16:13;40.85;;;14.57;;
25107;SDS011;13090;53.422;7.670;2024-01-25T23:21:54;44.67;;;16.52;;
25107;SDS011;13090;53.422;7.670;2024-01-25T23:27:36;38.72;;;16.35;;
25107;SDS011;13090;53.422;7.670;2024-01-25T23:33:16;38.22;;;17.02;;
25107;SDS011;13090;53.422;7.670;2024-01-25T23:38:57;46.55;;;17.27;;
25107;SDS011;13090;53.422;7.670;2024-01-25T23:44:39;41.13;;;16.63;;
25107;SDS011;13090;53.422;7.670;2024-01-25T23:50:19;37.65;;;17.38;;
25107;SDS011;13090;53.422;7.670;2024-01-25T23:56:00;36.90;;;16.48;;
